Irineopolis, Brazil
Current Conditions -  °F | °C
As of 2:00 PM on Monday 24 Nov 2014 (Local Time) from SBCT Reporting Station
Broken Clouds Broken Clouds  
Wind Chill: 75°   Ceiling: 2300
Heat Index: 75°   Visibility: 6mi
Dew Point: 61°   Wind: 12mph
Humidity: 61%   Direction: 60°ENE
Pressure: 30.09"   Gusts: NA
Location:  26.24°S, 50.8°W
Report Text: SBCT 241600Z 06010KT 9999 BKN023 24/16 Q1019
Loading
Personal Weather Stations






























Interactive Weather Map New forecast layout! Learn more

10-Day Weather Forecast

Advertisements
Track Severe Weather on mobile